Terminal Aerodrome Forecast
Issued by NWS

Home | Current Version | Previous Version | Text Only | Print | Product List | Glossary On
Versions: 1 2 3 4 5 6 7 8 9 10 11 12 13
712
FTUS46 KSTO 042333
TAFSAC
TAF
KSAC 042333Z 0500/0524 VRB04KT P6SM BKN250
     FM051000 VRB03KT 4SM BR FEW200
     FM051500 33008KT P6SM SCT200=

USA.gov is the U.S. government's official web portal to all federal, state and local government web resources and services.